Terminal Aerodrome Forecast
Issued by NWS

Home | Current Version | Previous Version | Text Only | Print | Product List | Glossary Off
Versions: 1 2 3 4 5 6 7 8 9 10 11 12 13 14 15 16 17

000
FTUS43 KBIS 212300
TAFDIK
TAF
KDIK 212332Z 2200/2224 VRB03KT P6SM SKC
     FM220400 09007KT P6SM SKC
     FM221500 14017G25KT P6SM SCT250
     FM222200 13022G31KT P6SM BKN250=

USA.gov is the U.S. government's official web portal to all federal, state and local government web resources and services.